createdAt,value
2022-11-09T00:01:21.297Z,0.90
2022-11-09T00:03:48.016Z,1.00
2022-11-09T00:06:14.822Z,1.23
2022-11-09T00:08:41.481Z,1.08
2022-11-09T00:11:09.527Z,0.90
2022-11-09T00:13:36.840Z,1.02
2022-11-09T00:16:03.446Z,2.28
2022-11-09T00:18:30.195Z,0.80
2022-11-09T00:20:56.738Z,1.10
2022-11-09T00:23:23.350Z,0.80
2022-11-09T00:25:49.831Z,0.95
2022-11-09T00:28:16.222Z,0.70
2022-11-09T00:30:42.607Z,1.00
2022-11-09T00:33:11.063Z,0.77
2022-11-09T00:35:40.399Z,0.90
2022-11-09T00:38:06.933Z,1.00
2022-11-09T00:40:33.366Z,0.90
2022-11-09T00:42:59.649Z,0.80
2022-11-09T00:45:25.969Z,0.73
2022-11-09T00:47:52.255Z,0.98
2022-11-09T00:50:18.704Z,0.85
2022-11-09T00:52:45.037Z,0.90
2022-11-09T00:55:11.326Z,0.98
2022-11-09T00:57:37.715Z,0.90
2022-11-09T01:00:04.326Z,0.90
2022-11-09T01:02:30.686Z,0.73
2022-11-09T01:04:57.069Z,1.00
2022-11-09T01:07:23.427Z,0.85
2022-11-09T01:09:49.748Z,0.90
2022-11-09T01:12:16.278Z,0.82
2022-11-09T01:14:42.683Z,0.90
2022-11-09T01:17:09.064Z,0.90
2022-11-09T01:19:35.550Z,1.02
2022-11-09T01:22:01.903Z,0.90
2022-11-09T01:24:28.291Z,0.90
2022-11-09T01:26:54.932Z,0.77
2022-11-09T01:29:22.425Z,0.80
2022-11-09T01:31:49.044Z,0.93
2022-11-09T01:34:17.546Z,0.98
2022-11-09T01:36:43.873Z,0.75
2022-11-09T01:39:10.227Z,0.85
2022-11-09T01:41:36.516Z,0.90
2022-11-09T01:44:02.800Z,0.80
2022-11-09T01:46:34.477Z,0.80
2022-11-09T01:49:03.354Z,0.80
2022-11-09T01:51:32.555Z,1.00
2022-11-09T01:54:02.369Z,1.15
2022-11-09T01:56:30.410Z,1.20
2022-11-09T01:59:02.435Z,1.00
2022-11-09T02:01:29.591Z,1.05
2022-11-09T02:03:59.390Z,0.85
2022-11-09T02:06:27.601Z,0.90
2022-11-09T02:08:55.659Z,1.00
2022-11-09T02:11:22.957Z,1.20
2022-11-09T02:13:52.140Z,1.00
2022-11-09T02:16:18.951Z,0.90
2022-11-09T02:18:56.164Z,1.02
2022-11-09T02:21:23.396Z,1.30
2022-11-09T02:23:50.430Z,1.00
2022-11-09T02:26:19.544Z,0.95
2022-11-09T02:28:46.463Z,0.82
2022-11-09T02:31:14.628Z,1.30
2022-11-09T02:33:44.670Z,1.13
2022-11-09T02:36:11.057Z,0.93
2022-11-09T02:38:37.414Z,0.90
2022-11-09T02:41:03.871Z,0.98
2022-11-09T02:43:30.419Z,0.90
2022-11-09T02:45:56.702Z,1.20
2022-11-09T02:48:23.056Z,0.90
2022-11-09T02:50:49.411Z,1.10
2022-11-09T02:53:15.786Z,0.80
2022-11-09T02:55:42.182Z,0.90
2022-11-09T02:58:08.620Z,1.05
2022-11-09T03:00:34.909Z,0.90
2022-11-09T03:03:01.393Z,1.20
2022-11-09T03:05:27.806Z,1.08
2022-11-09T03:07:54.167Z,0.88
2022-11-09T03:10:20.535Z,0.98
2022-11-09T03:12:46.912Z,1.27
2022-11-09T03:15:13.561Z,0.90
2022-11-09T03:17:39.879Z,0.90
2022-11-09T03:20:06.707Z,1.10
2022-11-09T03:22:33.056Z,1.20
2022-11-09T03:24:59.353Z,1.00
2022-11-09T03:27:25.816Z,0.95
2022-11-09T03:29:52.450Z,1.00
2022-11-09T03:32:18.825Z,1.02
2022-11-09T03:34:45.187Z,0.85
2022-11-09T03:37:11.655Z,1.08
2022-11-09T03:39:38.034Z,0.88
2022-11-09T03:42:04.360Z,0.90
2022-11-09T03:44:30.727Z,0.82
2022-11-09T03:46:57.072Z,1.05
2022-11-09T03:49:26.270Z,1.15
2022-11-09T03:51:52.655Z,1.02
2022-11-09T03:54:20.204Z,1.40
2022-11-09T03:56:46.500Z,1.38
2022-11-09T03:59:12.910Z,1.15
2022-11-09T04:01:39.344Z,1.20
2022-11-09T04:04:05.955Z,1.13
2022-11-09T04:06:32.365Z,1.10
2022-11-09T04:08:58.748Z,1.00
2022-11-09T04:11:25.119Z,1.30
2022-11-09T04:13:51.419Z,1.10
2022-11-09T04:16:17.760Z,1.20
2022-11-09T04:18:44.139Z,1.13
2022-11-09T04:21:10.471Z,1.10
2022-11-09T04:23:36.857Z,1.20
2022-11-09T04:26:03.182Z,1.20
2022-11-09T04:28:29.638Z,1.13
2022-11-09T04:30:59.677Z,1.17
2022-11-09T04:33:26.014Z,1.15
2022-11-09T04:35:52.373Z,1.38
2022-11-09T04:38:18.667Z,1.17
2022-11-09T04:40:44.966Z,0.98
2022-11-09T04:43:12.525Z,1.20
2022-11-09T04:45:39.077Z,1.17
2022-11-09T04:48:06.529Z,1.10
2022-11-09T04:50:33.456Z,1.40
2022-11-09T04:53:19.400Z,1.30
2022-11-09T04:55:45.874Z,1.42
2022-11-09T04:58:12.274Z,1.17
2022-11-09T05:00:38.969Z,1.20
2022-11-09T05:03:06.014Z,1.40
2022-11-09T05:05:33.145Z,1.50
2022-11-09T05:07:59.513Z,1.38
2022-11-09T05:10:25.905Z,1.23
2022-11-09T05:12:57.337Z,1.25
2022-11-09T05:15:23.703Z,1.20
2022-11-09T05:17:50.008Z,1.60
2022-11-09T05:20:16.445Z,1.38
2022-11-09T05:23:01.666Z,1.45
2022-11-09T05:25:28.085Z,1.47
2022-11-09T05:27:54.781Z,1.33
2022-11-09T05:30:21.149Z,1.30
2022-11-09T05:32:47.744Z,1.15
2022-11-09T05:35:14.125Z,1.70
2022-11-09T05:37:40.502Z,1.30
2022-11-09T05:40:07.827Z,1.42
2022-11-09T05:42:34.176Z,1.50
2022-11-09T05:45:21.125Z,1.40
2022-11-09T05:47:47.599Z,1.58
2022-11-09T05:50:15.068Z,1.38
2022-11-09T05:52:41.446Z,1.50
2022-11-09T05:55:08.184Z,1.38
2022-11-09T05:57:34.612Z,1.20
2022-11-09T06:00:00.957Z,1.70
2022-11-09T06:02:30.240Z,1.30
2022-11-09T06:04:56.607Z,1.30
2022-11-09T06:07:23.104Z,1.23
2022-11-09T06:09:49.416Z,1.30
2022-11-09T06:12:15.713Z,1.55
2022-11-09T06:14:42.059Z,1.55
2022-11-09T06:17:08.357Z,1.45
2022-11-09T06:19:34.787Z,1.40
2022-11-09T06:22:01.187Z,1.45
2022-11-09T06:24:27.534Z,1.13
2022-11-09T06:26:53.921Z,1.23
2022-11-09T06:29:20.250Z,1.45
2022-11-09T06:31:48.881Z,1.48
2022-11-09T06:34:15.547Z,1.48
2022-11-09T06:36:44.832Z,1.20
2022-11-09T06:39:11.234Z,1.90
2022-11-09T06:41:37.579Z,1.33
2022-11-09T06:44:07.709Z,1.50
2022-11-09T06:46:36.965Z,1.40
2022-11-09T06:49:03.372Z,1.40
2022-11-09T06:51:29.720Z,1.50
2022-11-09T06:53:56.201Z,1.27
2022-11-09T06:56:25.055Z,1.42
2022-11-09T06:58:51.436Z,1.13
2022-11-09T07:01:19.009Z,1.60
2022-11-09T07:03:45.541Z,1.60
2022-11-09T07:06:12.596Z,1.52
2022-11-09T07:08:39.050Z,1.50
2022-11-09T07:11:10.477Z,1.25
2022-11-09T07:13:36.802Z,1.60
2022-11-09T07:16:03.723Z,1.45
2022-11-09T07:18:30.037Z,1.40
2022-11-09T07:20:56.554Z,1.50
2022-11-09T07:23:23.079Z,1.58
2022-11-09T07:25:49.628Z,1.70
2022-11-09T07:28:16.230Z,1.50
2022-11-09T07:30:42.589Z,1.65
2022-11-09T07:33:13.401Z,1.40
2022-11-09T07:35:39.752Z,1.67
2022-11-09T07:38:06.417Z,1.40
2022-11-09T07:40:32.901Z,1.55
2022-11-09T07:42:59.904Z,1.38
2022-11-09T07:45:26.611Z,1.50
2022-11-09T07:47:56.900Z,1.33
2022-11-09T07:50:23.327Z,1.55
2022-11-09T07:52:49.636Z,1.63
2022-11-09T07:55:15.952Z,1.73
2022-11-09T07:57:44.333Z,1.40
2022-11-09T08:00:11.143Z,1.30
2022-11-09T08:02:37.439Z,1.58
2022-11-09T08:05:03.967Z,1.48
2022-11-09T08:07:30.254Z,1.40
2022-11-09T08:09:56.573Z,1.70
2022-11-09T08:12:22.931Z,1.75
2022-11-09T08:14:49.239Z,1.33
2022-11-09T08:17:15.619Z,1.50
2022-11-09T08:19:41.893Z,1.90
2022-11-09T08:22:08.276Z,1.65
2022-11-09T08:24:34.581Z,1.98
2022-11-09T08:27:00.880Z,1.88
2022-11-09T08:29:27.228Z,2.03
2022-11-09T08:31:53.538Z,2.05
2022-11-09T08:34:19.958Z,1.88
2022-11-09T08:36:46.376Z,2.20
2022-11-09T08:39:12.783Z,2.08
2022-11-09T08:41:39.086Z,2.20
2022-11-09T08:44:05.507Z,2.22
2022-11-09T08:46:32.664Z,2.33
2022-11-09T08:49:00.320Z,2.47
2022-11-09T08:51:26.669Z,2.70
2022-11-09T08:53:53.029Z,4.03
2022-11-09T08:56:19.440Z,2.45
2022-11-09T08:58:45.879Z,1.95
2022-11-09T09:01:16.654Z,2.45
2022-11-09T09:03:43.380Z,2.40
2022-11-09T09:06:09.826Z,2.13
2022-11-09T09:08:36.178Z,1.83
2022-11-09T09:11:03.326Z,1.92
2022-11-09T09:13:29.886Z,2.20
2022-11-09T09:15:56.282Z,1.90
2022-11-09T09:18:23.025Z,1.85
2022-11-09T09:20:49.757Z,2.00
2022-11-09T09:23:17.014Z,1.80
2022-11-09T09:25:43.884Z,1.90
2022-11-09T09:28:10.249Z,2.13
2022-11-09T09:30:36.824Z,1.92
2022-11-09T09:33:03.178Z,2.08
2022-11-09T09:35:29.540Z,1.77
2022-11-09T09:37:58.154Z,1.67
2022-11-09T09:40:36.917Z,1.30
2022-11-09T09:43:03.366Z,1.00
2022-11-09T09:45:33.560Z,1.20
2022-11-09T09:48:18.236Z,1.17
2022-11-09T09:50:52.774Z,1.27
2022-11-09T09:53:26.122Z,1.13
2022-11-09T09:56:04.640Z,1.00
2022-11-09T09:58:32.318Z,1.10
2022-11-09T10:01:03.380Z,1.00
2022-11-09T10:03:29.739Z,1.10
2022-11-09T10:06:00.541Z,1.35
2022-11-09T10:08:33.501Z,1.20
2022-11-09T10:11:05.833Z,1.15
2022-11-09T10:13:47.677Z,1.30
2022-11-09T10:16:20.024Z,1.20
2022-11-09T10:18:46.307Z,1.10
2022-11-09T10:21:21.295Z,1.10
2022-11-09T10:23:56.758Z,1.02
2022-11-09T10:26:26.771Z,1.35
2022-11-09T10:29:16.545Z,0.80
2022-11-09T10:31:44.652Z,0.90
2022-11-09T10:34:21.563Z,2.00
2022-11-09T10:36:48.022Z,0.88
2022-11-09T10:39:15.134Z,1.00
2022-11-09T10:41:44.243Z,0.80
2022-11-09T10:44:18.351Z,0.63
2022-11-09T10:47:05.337Z,0.95
2022-11-09T10:49:31.785Z,0.80
2022-11-09T10:51:58.082Z,0.70
2022-11-09T10:54:27.575Z,0.70
2022-11-09T10:57:32.287Z,0.63
2022-11-09T10:59:58.661Z,0.80
2022-11-09T11:02:25.379Z,0.68
2022-11-09T11:04:52.124Z,0.75
2022-11-09T11:07:22.325Z,0.80
2022-11-09T11:09:48.674Z,0.77
2022-11-09T11:12:16.594Z,0.82
2022-11-09T11:14:44.483Z,0.60
2022-11-09T11:17:27.335Z,0.60
2022-11-09T11:19:53.643Z,0.80
2022-11-09T11:22:23.414Z,0.80
2022-11-09T11:24:57.117Z,0.80
2022-11-09T11:27:27.387Z,0.80
2022-11-09T11:29:58.250Z,0.60
2022-11-09T11:32:24.897Z,0.80
2022-11-09T11:35:00.352Z,0.80
2022-11-09T11:37:37.659Z,0.70
2022-11-09T11:40:04.042Z,0.60
2022-11-09T11:42:44.481Z,0.80
2022-11-09T11:45:40.519Z,0.73
2022-11-09T11:50:36.307Z,0.93
2022-11-09T11:53:08.779Z,0.70
2022-11-09T11:55:35.050Z,0.60
2022-11-09T11:58:13.985Z,0.63
2022-11-09T12:00:48.192Z,0.60
2022-11-09T12:03:17.595Z,0.50
2022-11-09T12:06:02.778Z,0.60
2022-11-09T12:08:49.864Z,0.57
2022-11-09T12:11:16.176Z,0.55
2022-11-09T12:14:01.588Z,0.60
2022-11-09T12:16:31.827Z,0.57
2022-11-09T12:19:00.914Z,0.70
2022-11-09T12:21:39.730Z,0.55
2022-11-09T12:24:06.083Z,0.70
2022-11-09T12:27:10.806Z,0.60
2022-11-09T12:29:48.203Z,0.65
2022-11-09T12:32:17.431Z,0.82
2022-11-09T12:34:44.167Z,0.80
2022-11-09T12:37:17.277Z,0.60
2022-11-09T12:39:47.788Z,0.68
2022-11-09T12:42:20.465Z,0.70
2022-11-09T12:45:07.842Z,0.73
2022-11-09T12:47:43.104Z,0.60
2022-11-09T12:50:14.543Z,0.80
2022-11-09T12:52:42.010Z,0.50
2022-11-09T12:55:12.768Z,0.73
2022-11-09T12:57:39.145Z,0.60
2022-11-09T13:00:06.553Z,0.47
2022-11-09T13:02:42.805Z,0.70
2022-11-09T13:05:27.180Z,0.80
2022-11-09T13:07:54.525Z,0.70
2022-11-09T13:10:39.360Z,0.90
2022-11-09T13:13:05.751Z,0.70
2022-11-09T13:15:34.205Z,0.73
2022-11-09T13:18:19.511Z,0.80
2022-11-09T13:20:55.892Z,0.73
2022-11-09T13:26:32.622Z,0.90
2022-11-09T13:29:08.142Z,0.70
2022-11-09T13:31:53.322Z,0.80
2022-11-09T13:34:39.049Z,1.10
2022-11-09T13:37:24.902Z,0.90
2022-11-09T13:39:51.370Z,0.90
2022-11-09T13:42:29.816Z,0.80
2022-11-09T13:45:16.133Z,0.88
2022-11-09T13:47:49.767Z,0.82
2022-11-09T13:50:42.709Z,0.80
2022-11-09T13:53:44.826Z,0.90
2022-11-09T13:56:13.975Z,0.80
2022-11-09T13:58:40.998Z,0.90
2022-11-09T14:01:24.391Z,0.88
2022-11-09T14:03:51.600Z,1.00
2022-11-09T14:06:18.318Z,1.05
2022-11-09T14:08:44.946Z,1.00
2022-11-09T14:11:23.637Z,0.82
2022-11-09T14:14:13.063Z,1.00
2022-11-09T14:17:02.439Z,0.90
2022-11-09T14:19:35.093Z,0.90
2022-11-09T14:22:01.476Z,0.93
2022-11-09T14:24:34.740Z,0.90
2022-11-09T14:27:01.219Z,1.10
2022-11-09T14:29:30.080Z,1.10
2022-11-09T14:31:56.448Z,0.93
2022-11-09T14:34:22.939Z,0.98
2022-11-09T14:36:49.631Z,1.20
2022-11-09T14:39:35.619Z,1.40
2022-11-09T14:42:02.086Z,1.25
2022-11-09T14:44:29.804Z,1.20
2022-11-09T14:46:56.871Z,1.13
2022-11-09T14:49:25.491Z,1.30
2022-11-09T14:51:52.291Z,1.23
2022-11-09T14:54:21.943Z,1.38
2022-11-09T14:56:48.964Z,1.35
2022-11-09T14:59:16.873Z,1.35
2022-11-09T15:02:00.099Z,1.30
2022-11-09T15:04:27.292Z,1.40
2022-11-09T15:06:55.439Z,1.42
2022-11-09T15:09:22.945Z,1.40
2022-11-09T15:11:49.992Z,1.85
2022-11-09T15:14:19.057Z,1.77
2022-11-09T15:16:46.814Z,1.98
2022-11-09T15:19:28.488Z,1.88
2022-11-09T15:21:55.187Z,1.92
2022-11-09T15:24:22.457Z,1.58
2022-11-09T15:26:50.505Z,1.63
2022-11-09T15:29:31.860Z,1.42
2022-11-09T15:31:58.241Z,1.40
2022-11-09T15:34:26.789Z,1.55
2022-11-09T15:36:54.169Z,1.45
2022-11-09T15:39:21.203Z,1.33
2022-11-09T15:41:47.593Z,1.13
2022-11-09T15:44:14.283Z,1.40
2022-11-09T15:46:45.589Z,1.33
2022-11-09T15:49:11.905Z,1.20
2022-11-09T15:51:38.255Z,0.75
2022-11-09T15:54:04.689Z,1.10
2022-11-09T15:56:31.113Z,1.15
2022-11-09T15:58:57.539Z,1.23
2022-11-09T16:01:24.037Z,0.88
2022-11-09T16:03:50.438Z,1.10
2022-11-09T16:06:19.110Z,1.20
2022-11-09T16:08:49.141Z,0.98
2022-11-09T16:11:15.896Z,1.42
2022-11-09T16:13:42.356Z,1.20
2022-11-09T16:16:09.945Z,1.27
2022-11-09T16:18:36.347Z,1.40
2022-11-09T16:21:16.291Z,1.40
2022-11-09T16:23:43.143Z,1.17
2022-11-09T16:26:13.685Z,1.38
2022-11-09T16:28:40.507Z,1.88
2022-11-09T16:31:07.577Z,1.35
2022-11-09T16:33:33.935Z,1.40
2022-11-09T16:36:02.121Z,1.52
2022-11-09T16:38:30.380Z,1.55
2022-11-09T16:40:56.946Z,1.30
2022-11-09T16:43:23.257Z,1.20
2022-11-09T16:45:50.145Z,1.33
2022-11-09T16:48:17.039Z,1.40
2022-11-09T16:50:43.984Z,1.30
2022-11-09T16:53:10.321Z,1.40
2022-11-09T16:55:36.928Z,1.40
2022-11-09T16:58:03.448Z,1.88
2022-11-09T17:00:42.745Z,1.50
2022-11-09T17:03:16.628Z,1.35
2022-11-09T17:05:43.125Z,1.23
2022-11-09T17:08:10.320Z,1.50
2022-11-09T17:10:43.717Z,1.70
2022-11-09T17:13:10.663Z,1.63
2022-11-09T17:15:44.172Z,1.15
2022-11-09T17:18:11.394Z,1.33
2022-11-09T17:20:41.434Z,1.50
2022-11-09T17:23:08.151Z,1.52
2022-11-09T17:25:34.552Z,1.60
2022-11-09T17:28:00.986Z,1.40
2022-11-09T17:30:27.361Z,1.42
2022-11-09T17:32:54.735Z,1.27
2022-11-09T17:35:21.247Z,1.65
2022-11-09T17:37:48.437Z,1.52
2022-11-09T17:40:17.097Z,1.50
2022-11-09T17:42:43.428Z,1.42
2022-11-09T17:45:10.193Z,1.80
2022-11-09T17:47:36.819Z,1.90
2022-11-09T17:50:03.651Z,1.55
2022-11-09T17:52:30.021Z,1.80
2022-11-09T17:54:56.353Z,1.90
2022-11-09T17:57:22.685Z,1.75
2022-11-09T17:59:49.097Z,1.50
2022-11-09T18:02:15.715Z,1.40
2022-11-09T18:04:42.146Z,1.83
2022-11-09T18:07:08.528Z,1.40
2022-11-09T18:09:41.404Z,1.77
2022-11-09T18:12:09.382Z,1.70
2022-11-09T18:14:35.774Z,1.83
2022-11-09T18:17:02.124Z,1.60
2022-11-09T18:19:28.511Z,1.60
2022-11-09T18:21:54.909Z,1.90
2022-11-09T18:24:21.216Z,2.10
2022-11-09T18:26:47.902Z,1.60
2022-11-09T18:29:14.240Z,1.58
2022-11-09T18:31:40.542Z,1.50
2022-11-09T18:34:06.948Z,1.80
2022-11-09T18:36:33.271Z,1.60
2022-11-09T18:38:59.719Z,1.48
2022-11-09T18:41:26.183Z,1.30
2022-11-09T18:43:53.906Z,1.33
2022-11-09T18:46:21.117Z,1.60
2022-11-09T18:48:51.955Z,1.40
2022-11-09T18:51:18.644Z,1.63
2022-11-09T18:53:45.541Z,1.75
2022-11-09T18:56:19.015Z,1.85
2022-11-09T18:58:46.084Z,1.52
2022-11-09T19:01:12.628Z,1.30
2022-11-09T19:03:39.041Z,1.60
2022-11-09T19:06:09.793Z,1.40
2022-11-09T19:08:56.090Z,1.50
2022-11-09T19:11:22.457Z,1.40
2022-11-09T19:13:48.927Z,1.38
2022-11-09T19:16:15.694Z,2.83
2022-11-09T19:18:42.163Z,2.53
2022-11-09T19:21:31.736Z,1.60
2022-11-09T19:23:58.063Z,1.60
2022-11-09T19:26:24.373Z,1.65
2022-11-09T19:28:50.878Z,1.70
2022-11-09T19:31:18.263Z,1.45
2022-11-09T19:33:44.675Z,1.42
2022-11-09T19:38:58.053Z,2.47
2022-11-09T19:41:25.254Z,1.70
2022-11-09T19:43:52.738Z,1.45
2022-11-09T19:46:19.141Z,1.88
2022-11-09T19:48:46.262Z,1.88
2022-11-09T19:51:13.379Z,1.80
2022-11-09T19:53:42.518Z,1.85
2022-11-09T19:56:09.565Z,1.90
2022-11-09T19:58:35.943Z,2.03
2022-11-09T20:01:03.628Z,2.28
2022-11-09T20:03:30.259Z,1.90
2022-11-09T20:05:56.731Z,2.22
2022-11-09T20:08:23.488Z,2.47
2022-11-09T20:10:56.163Z,2.05
2022-11-09T20:13:22.904Z,2.15
2022-11-09T20:15:49.754Z,2.08
2022-11-09T20:18:16.500Z,1.98
2022-11-09T20:20:42.862Z,1.90
2022-11-09T20:23:09.617Z,2.60
2022-11-09T20:25:36.038Z,2.30
2022-11-09T20:28:02.463Z,2.65
2022-11-09T20:30:28.869Z,2.63
2022-11-09T20:32:55.400Z,2.58
2022-11-09T20:35:21.758Z,2.10
2022-11-09T20:37:48.086Z,2.33
2022-11-09T20:40:14.491Z,3.60
2022-11-09T20:42:40.966Z,2.60
2022-11-09T20:45:07.830Z,2.72
2022-11-09T20:48:02.216Z,2.60
2022-11-09T20:50:20.621Z,2.00
2022-11-09T20:52:46.978Z,2.40
2022-11-09T20:55:13.784Z,2.15
2022-11-09T20:57:40.358Z,2.28
2022-11-09T21:00:07.681Z,2.25
2022-11-09T21:02:34.264Z,1.73
2022-11-09T21:05:01.180Z,1.65
2022-11-09T21:07:27.519Z,1.90
2022-11-09T21:09:53.927Z,1.70
2022-11-09T21:12:24.840Z,1.70
2022-11-09T21:14:52.915Z,1.60
2022-11-09T21:17:19.369Z,1.33
2022-11-09T21:19:45.816Z,1.48
2022-11-09T21:22:12.210Z,1.15
2022-11-09T21:24:57.573Z,1.23
2022-11-09T21:27:47.709Z,1.92
2022-11-09T21:30:14.868Z,1.40
2022-11-09T21:32:41.252Z,1.30
2022-11-09T21:35:07.895Z,1.30
2022-11-09T21:37:41.132Z,1.67
2022-11-09T21:40:07.922Z,1.50
2022-11-09T21:42:34.573Z,1.25
2022-11-09T21:45:01.006Z,1.73
2022-11-09T21:47:27.420Z,1.70
2022-11-09T21:49:53.829Z,1.70
2022-11-09T21:52:21.047Z,1.77
2022-11-09T21:54:47.701Z,2.53
2022-11-09T21:57:14.220Z,2.70
2022-11-09T21:59:40.970Z,2.60
2022-11-09T22:02:09.059Z,2.58
2022-11-09T22:04:35.548Z,2.40
2022-11-09T22:07:02.333Z,2.50
2022-11-09T22:09:35.745Z,2.58
2022-11-09T22:12:25.434Z,2.97
2022-11-09T22:15:10.417Z,2.70
2022-11-09T22:17:36.810Z,3.13
2022-11-09T22:20:21.699Z,2.60
2022-11-09T22:22:48.093Z,2.25
2022-11-09T22:25:16.431Z,2.55
2022-11-09T22:27:42.928Z,2.00
2022-11-09T22:30:09.506Z,2.00
2022-11-09T22:32:36.688Z,2.10
2022-11-09T22:35:03.128Z,1.73
2022-11-09T22:37:30.028Z,1.63
2022-11-09T22:39:56.626Z,1.77
2022-11-09T22:42:23.035Z,1.48
2022-11-09T22:44:49.460Z,1.42
2022-11-09T22:47:15.907Z,1.65
2022-11-09T22:49:42.279Z,1.25
2022-11-09T22:52:09.024Z,1.42
2022-11-09T22:54:35.573Z,1.23
2022-11-09T22:57:01.991Z,1.13
2022-11-09T22:59:28.414Z,1.30
2022-11-09T23:01:55.261Z,1.40
2022-11-09T23:04:21.977Z,1.30
2022-11-09T23:06:48.517Z,1.10
2022-11-09T23:09:15.329Z,1.27
2022-11-09T23:11:41.975Z,1.20
2022-11-09T23:14:08.410Z,1.40
2022-11-09T23:16:34.838Z,1.30
2022-11-09T23:19:01.285Z,1.13
2022-11-09T23:21:29.250Z,1.30
2022-11-09T23:23:57.039Z,1.30
2022-11-09T23:26:24.062Z,1.52
2022-11-09T23:28:50.445Z,1.38
2022-11-09T23:31:19.463Z,1.25
2022-11-09T23:33:49.172Z,1.58
2022-11-09T23:36:15.731Z,1.25
2022-11-09T23:38:42.167Z,1.38
2022-11-09T23:41:09.942Z,1.83
2022-11-09T23:43:36.884Z,1.42
2022-11-09T23:46:04.751Z,1.50
2022-11-09T23:48:31.225Z,1.40
2022-11-09T23:50:58.901Z,1.40
2022-11-09T23:53:26.291Z,1.27
2022-11-09T23:55:52.876Z,1.40
2022-11-09T23:58:19.555Z,1.25
